createdAt,value
2023-02-02T00:02:51.201Z,1.35
2023-02-02T00:05:54.415Z,1.00
2023-02-02T00:08:58.634Z,1.20
2023-02-02T00:12:01.533Z,1.67
2023-02-02T00:15:03.950Z,1.20
2023-02-02T00:18:07.265Z,1.67
2023-02-02T00:21:09.474Z,1.23
2023-02-02T00:24:14.515Z,1.20
2023-02-02T00:27:16.688Z,1.42
2023-02-02T00:30:19.398Z,1.05
2023-02-02T00:33:21.907Z,1.10
2023-02-02T00:36:24.781Z,1.05
2023-02-02T00:39:27.077Z,1.50
2023-02-02T00:42:29.985Z,2.05
2023-02-02T00:45:32.215Z,1.20
2023-02-02T00:48:34.827Z,1.15
2023-02-02T00:51:37.475Z,1.20
2023-02-02T00:57:44.370Z,0.80
2023-02-02T01:00:48.481Z,1.17
2023-02-02T01:03:51.616Z,1.77
2023-02-02T01:06:55.061Z,1.40
2023-02-02T01:09:57.870Z,1.30
2023-02-02T01:13:00.591Z,1.48
2023-02-02T01:16:04.802Z,1.58
2023-02-02T01:19:09.181Z,1.12
2023-02-02T01:22:11.714Z,1.70
2023-02-02T01:25:15.298Z,1.33
2023-02-02T01:28:17.487Z,1.30
2023-02-02T01:31:20.671Z,1.40
2023-02-02T01:34:23.121Z,1.25
2023-02-02T01:37:26.010Z,1.48
2023-02-02T01:40:28.443Z,1.58
2023-02-02T01:43:43.274Z,1.23
2023-02-02T01:46:45.501Z,1.10
2023-02-02T01:49:48.488Z,1.12
2023-02-02T01:52:53.790Z,1.62
2023-02-02T01:55:57.167Z,1.05
2023-02-02T01:59:00.015Z,2.63
2023-02-02T02:02:03.710Z,0.90
2023-02-02T02:05:07.747Z,1.08
2023-02-02T02:08:30.930Z,0.90
2023-02-02T02:11:36.120Z,0.50
2023-02-02T02:18:24.608Z,0.37
2023-02-02T02:21:48.820Z,0.57
2023-02-02T02:25:21.623Z,0.50
2023-02-02T02:28:47.154Z,0.82
2023-02-02T02:32:27.269Z,0.50
2023-02-02T02:35:48.453Z,1.10
2023-02-02T02:39:15.278Z,0.68
2023-02-02T02:42:22.801Z,0.70
2023-02-02T02:45:28.112Z,0.57
2023-02-02T02:48:31.055Z,1.40
2023-02-02T02:51:44.264Z,1.27
2023-02-02T02:54:53.876Z,1.30
2023-02-02T02:58:09.002Z,1.73
2023-02-02T03:01:20.583Z,1.50
2023-02-02T03:04:39.729Z,1.42
2023-02-02T03:07:47.619Z,2.05
2023-02-02T03:10:52.371Z,1.58
2023-02-02T03:16:57.668Z,2.10
2023-02-02T03:19:59.889Z,1.60
2023-02-02T03:23:02.688Z,1.27
2023-02-02T03:26:05.216Z,1.75
2023-02-02T03:29:08.235Z,1.73
2023-02-02T03:32:10.955Z,1.58
2023-02-02T03:35:14.417Z,1.80
2023-02-02T03:38:16.668Z,1.80
2023-02-02T03:41:19.403Z,1.83
2023-02-02T03:44:21.656Z,1.60
2023-02-02T03:47:29.607Z,1.80
2023-02-02T03:50:31.910Z,1.83
2023-02-02T03:53:34.420Z,0.80
2023-02-02T03:56:36.671Z,1.45
2023-02-02T03:59:39.212Z,1.15
2023-02-02T04:02:42.011Z,1.30
2023-02-02T04:05:44.808Z,1.48
2023-02-02T04:08:47.063Z,1.37
2023-02-02T04:11:49.575Z,1.10
2023-02-02T04:14:52.177Z,1.30
2023-02-02T04:17:55.360Z,1.48
2023-02-02T04:21:02.160Z,1.37
2023-02-02T04:24:07.399Z,1.30
2023-02-02T04:27:09.576Z,1.33
2023-02-02T04:30:12.265Z,1.42
2023-02-02T04:33:14.449Z,0.98
2023-02-02T04:36:17.458Z,1.20
2023-02-02T04:39:19.965Z,1.08
2023-02-02T04:42:22.805Z,0.98
2023-02-02T04:45:25.259Z,1.27
2023-02-02T04:48:27.988Z,1.00
2023-02-02T04:51:30.575Z,0.75
2023-02-02T04:54:34.010Z,0.73
2023-02-02T04:57:36.272Z,1.33
2023-02-02T05:00:38.748Z,0.80
2023-02-02T05:03:41.752Z,0.85
2023-02-02T05:06:44.482Z,1.23
2023-02-02T05:09:46.993Z,1.00
2023-02-02T05:12:53.515Z,1.02
2023-02-02T05:15:55.653Z,0.82
2023-02-02T05:18:59.578Z,1.05
2023-02-02T05:22:02.849Z,1.00
2023-02-02T05:25:06.891Z,1.13
2023-02-02T05:28:09.110Z,1.42
2023-02-02T05:31:11.984Z,1.12
2023-02-02T05:34:14.423Z,1.03
2023-02-02T05:37:17.529Z,1.27
2023-02-02T05:40:19.797Z,0.80
2023-02-02T05:43:25.748Z,0.80
2023-02-02T05:46:28.948Z,1.33
2023-02-02T05:49:31.431Z,1.10
2023-02-02T05:52:35.559Z,0.98
2023-02-02T05:55:38.084Z,1.98
2023-02-02T05:58:40.289Z,1.15
2023-02-02T06:01:43.921Z,1.43
2023-02-02T06:04:46.674Z,1.33
2023-02-02T06:07:48.915Z,1.20
2023-02-02T06:10:51.477Z,1.30
2023-02-02T06:13:53.828Z,0.93
2023-02-02T06:16:56.402Z,1.40
2023-02-02T06:19:58.866Z,1.67
2023-02-02T06:23:01.366Z,1.30
2023-02-02T06:26:04.384Z,1.40
2023-02-02T06:29:07.812Z,1.40
2023-02-02T06:32:10.060Z,1.58
2023-02-02T06:35:12.800Z,1.70
2023-02-02T06:38:15.278Z,1.58
2023-02-02T06:41:20.352Z,1.33
2023-02-02T06:44:22.593Z,1.05
2023-02-02T06:47:26.919Z,0.90
2023-02-02T06:50:30.313Z,1.02
2023-02-02T06:56:35.165Z,1.35
2023-02-02T06:59:38.276Z,0.88
2023-02-02T07:02:40.482Z,1.75
2023-02-02T07:05:43.184Z,0.90
2023-02-02T07:08:46.047Z,1.87
2023-02-02T07:12:00.128Z,1.02
2023-02-02T07:15:02.325Z,1.23
2023-02-02T07:18:04.894Z,1.40
2023-02-02T07:21:07.112Z,1.10
2023-02-02T07:24:09.715Z,0.95
2023-02-02T07:27:12.047Z,1.20
2023-02-02T07:30:16.067Z,1.52
2023-02-02T07:33:18.199Z,1.35
2023-02-02T07:36:23.513Z,1.05
2023-02-02T07:39:25.830Z,1.00
2023-02-02T07:42:28.335Z,1.40
2023-02-02T07:45:31.180Z,1.02
2023-02-02T07:48:34.599Z,1.20
2023-02-02T07:51:38.249Z,1.35
2023-02-02T07:54:42.390Z,1.10
2023-02-02T07:57:44.803Z,1.27
2023-02-02T08:00:47.319Z,1.20
2023-02-02T08:03:50.658Z,1.05
2023-02-02T08:06:53.074Z,0.80
2023-02-02T08:09:55.583Z,1.30
2023-02-02T08:12:57.857Z,1.25
2023-02-02T08:16:00.478Z,1.70
2023-02-02T08:19:02.731Z,1.12
2023-02-02T08:22:05.166Z,1.02
2023-02-02T08:25:08.259Z,1.35
2023-02-02T08:28:10.810Z,1.05
2023-02-02T08:31:19.496Z,0.85
2023-02-02T08:34:22.051Z,0.93
2023-02-02T08:37:24.206Z,1.02
2023-02-02T08:40:26.818Z,0.65
2023-02-02T08:43:29.154Z,1.12
2023-02-02T08:46:31.872Z,1.30
2023-02-02T08:49:34.551Z,1.07
2023-02-02T08:52:37.151Z,0.70
2023-02-02T08:55:39.324Z,0.77
2023-02-02T08:58:50.883Z,1.50
2023-02-02T09:01:53.106Z,1.02
2023-02-02T09:04:55.576Z,0.70
2023-02-02T09:07:57.742Z,0.75
2023-02-02T09:11:05.626Z,1.30
2023-02-02T09:14:08.975Z,0.93
2023-02-02T09:17:11.497Z,0.80
2023-02-02T09:20:13.775Z,0.60
2023-02-02T09:23:16.436Z,0.60
2023-02-02T09:26:22.027Z,1.27
2023-02-02T09:29:24.615Z,1.00
2023-02-02T09:32:26.833Z,1.60
2023-02-02T09:35:29.422Z,1.02
2023-02-02T09:38:31.685Z,1.12
2023-02-02T09:41:37.079Z,0.93
2023-02-02T09:44:48.553Z,0.68
2023-02-02T09:47:58.462Z,0.80
2023-02-02T09:51:06.413Z,0.70
2023-02-02T09:54:34.799Z,0.68
2023-02-02T09:57:41.174Z,0.70
2023-02-02T10:01:01.435Z,0.62
2023-02-02T10:04:36.995Z,1.40
2023-02-02T10:07:45.654Z,0.68
2023-02-02T10:10:50.792Z,0.80
2023-02-02T10:13:57.246Z,0.77
2023-02-02T10:17:12.842Z,1.17
2023-02-02T10:20:42.573Z,0.52
2023-02-02T10:23:45.911Z,1.02
2023-02-02T10:26:52.341Z,1.00
2023-02-02T10:30:03.370Z,1.95
2023-02-02T10:33:07.375Z,0.80
2023-02-02T10:36:32.665Z,1.15
2023-02-02T10:39:49.458Z,0.80
2023-02-02T10:43:26.167Z,1.20
2023-02-02T10:46:42.504Z,0.82
2023-02-02T10:49:45.805Z,0.85
2023-02-02T10:52:54.383Z,0.68
2023-02-02T10:56:02.971Z,0.90
2023-02-02T10:59:17.871Z,0.95
2023-02-02T11:02:21.387Z,1.05
2023-02-02T11:05:51.070Z,1.00
2023-02-02T11:08:59.357Z,1.60
2023-02-02T11:12:10.714Z,0.90
2023-02-02T11:15:28.765Z,0.70
2023-02-02T11:18:31.354Z,1.05
2023-02-02T11:21:35.061Z,0.70
2023-02-02T11:24:47.304Z,1.33
2023-02-02T11:27:49.960Z,1.12
2023-02-02T11:30:53.803Z,0.80
2023-02-02T11:34:20.791Z,0.80
2023-02-02T11:37:23.553Z,1.87
2023-02-02T11:40:28.300Z,1.33
2023-02-02T11:43:41.475Z,1.10
2023-02-02T11:46:47.624Z,1.08
2023-02-02T11:49:52.326Z,0.88
2023-02-02T11:52:57.820Z,1.77
2023-02-02T11:56:06.797Z,0.93
2023-02-02T11:59:29.594Z,0.90
2023-02-02T12:02:32.720Z,0.80
2023-02-02T12:05:37.490Z,1.02
2023-02-02T12:08:39.990Z,0.85
2023-02-02T12:12:00.152Z,0.97
2023-02-02T12:15:02.602Z,1.20
2023-02-02T12:18:20.147Z,1.10
2023-02-02T12:21:31.307Z,1.27
2023-02-02T12:24:54.805Z,0.70
2023-02-02T12:28:08.057Z,1.37
2023-02-02T12:31:27.415Z,1.12
2023-02-02T12:34:41.868Z,1.15
2023-02-02T12:38:02.758Z,1.10
2023-02-02T12:41:34.443Z,1.12
2023-02-02T12:44:51.023Z,1.45
2023-02-02T12:48:00.183Z,1.65
2023-02-02T12:51:15.031Z,1.45
2023-02-02T12:54:46.132Z,0.98
2023-02-02T12:58:10.665Z,1.73
2023-02-02T13:01:28.249Z,2.03
2023-02-02T13:05:09.149Z,0.88
2023-02-02T13:08:20.167Z,0.93
2023-02-02T13:11:33.017Z,0.85
2023-02-02T13:14:47.117Z,1.00
2023-02-02T13:18:00.441Z,1.05
2023-02-02T13:21:15.409Z,1.63
2023-02-02T13:24:31.081Z,2.00
2023-02-02T13:27:33.396Z,1.37
2023-02-02T13:30:39.812Z,1.25
2023-02-02T13:33:44.705Z,1.37
2023-02-02T13:36:53.341Z,1.35
2023-02-02T13:40:01.041Z,2.30
2023-02-02T13:43:15.676Z,1.15
2023-02-02T13:46:27.588Z,1.33
2023-02-02T13:49:52.595Z,1.05
2023-02-02T13:53:13.254Z,0.90
2023-02-02T13:56:18.662Z,1.37
2023-02-02T13:59:58.415Z,1.00
2023-02-02T14:03:29.272Z,1.37
2023-02-02T14:06:56.748Z,1.05
2023-02-02T14:09:59.504Z,1.45
2023-02-02T14:13:07.233Z,1.02
2023-02-02T14:16:21.593Z,2.58
2023-02-02T14:19:33.279Z,1.10
2023-02-02T14:22:39.803Z,1.02
2023-02-02T14:25:45.347Z,1.33
2023-02-02T14:28:51.233Z,1.30
2023-02-02T14:31:55.544Z,1.52
2023-02-02T14:34:58.151Z,1.20
2023-02-02T14:38:32.607Z,1.00
2023-02-02T14:42:10.263Z,0.88
2023-02-02T14:45:12.631Z,1.62
2023-02-02T14:48:25.225Z,1.27
2023-02-02T14:51:30.787Z,1.30
2023-02-02T14:54:39.794Z,1.17
2023-02-02T14:57:42.777Z,1.08
2023-02-02T15:00:57.280Z,1.27
2023-02-02T15:04:22.985Z,1.05
2023-02-02T15:07:25.062Z,1.40
2023-02-02T15:10:53.921Z,2.33
2023-02-02T15:14:06.921Z,1.62
2023-02-02T15:17:31.116Z,1.30
2023-02-02T15:20:40.459Z,1.30
2023-02-02T15:23:46.177Z,1.50
2023-02-02T15:26:50.030Z,1.33
2023-02-02T15:30:02.961Z,1.45
2023-02-02T15:33:24.736Z,1.37
2023-02-02T15:36:31.231Z,1.70
2023-02-02T15:39:41.174Z,1.77
2023-02-02T15:42:53.099Z,1.75
2023-02-02T15:46:04.499Z,1.40
2023-02-02T15:49:33.682Z,1.27
2023-02-02T15:52:47.041Z,1.65
2023-02-02T15:55:50.500Z,1.65
2023-02-02T15:58:54.940Z,1.60
2023-02-02T16:02:06.507Z,1.35
2023-02-02T16:05:24.696Z,1.75
2023-02-02T16:08:34.929Z,1.83
2023-02-02T16:11:42.043Z,2.22
2023-02-02T16:14:50.257Z,1.62
2023-02-02T16:18:02.324Z,1.90
2023-02-02T16:21:14.673Z,1.92
2023-02-02T16:24:28.499Z,1.80
2023-02-02T16:27:31.484Z,1.67
2023-02-02T16:30:38.122Z,1.52
2023-02-02T16:33:44.811Z,2.10
2023-02-02T16:37:31.955Z,2.17
2023-02-02T16:40:34.221Z,1.85
2023-02-02T16:43:39.020Z,1.95
2023-02-02T16:46:47.668Z,1.92
2023-02-02T16:49:50.146Z,1.62
2023-02-02T16:52:54.334Z,3.05
2023-02-02T16:55:58.003Z,1.73
2023-02-02T16:59:05.402Z,1.60
2023-02-02T17:02:31.564Z,1.92
2023-02-02T17:05:47.568Z,1.60
2023-02-02T17:08:51.198Z,1.20
2023-02-02T17:11:59.960Z,1.85
2023-02-02T17:15:24.449Z,1.58
2023-02-02T17:18:26.999Z,2.08
2023-02-02T17:21:33.583Z,2.33
2023-02-02T17:24:36.222Z,1.20
2023-02-02T17:27:38.681Z,2.03
2023-02-02T17:30:42.626Z,2.20
2023-02-02T17:33:45.204Z,1.33
2023-02-02T17:36:47.511Z,1.87
2023-02-02T17:39:50.734Z,1.52
2023-02-02T17:42:53.789Z,1.87
2023-02-02T17:45:56.407Z,1.45
2023-02-02T17:48:58.717Z,1.52
2023-02-02T17:52:01.165Z,1.85
2023-02-02T17:55:03.493Z,1.90
2023-02-02T17:58:06.416Z,1.70
2023-02-02T18:01:11.658Z,1.62
2023-02-02T18:04:15.245Z,1.80
2023-02-02T18:07:17.369Z,1.62
2023-02-02T18:10:24.540Z,1.40
2023-02-02T18:13:27.739Z,1.20
2023-02-02T18:16:30.584Z,1.65
2023-02-02T18:19:32.715Z,1.80
2023-02-02T18:22:35.201Z,2.95
2023-02-02T18:25:39.009Z,1.60
2023-02-02T18:28:41.639Z,1.58
2023-02-02T18:31:43.904Z,2.20
2023-02-02T18:34:51.164Z,2.00
2023-02-02T18:37:53.677Z,2.15
2023-02-02T18:40:57.713Z,1.53
2023-02-02T18:43:59.849Z,1.90
2023-02-02T18:47:02.224Z,1.30
2023-02-02T18:50:04.841Z,1.73
2023-02-02T18:53:07.290Z,2.15
2023-02-02T18:56:10.561Z,1.40
2023-02-02T19:02:17.846Z,1.87
2023-02-02T19:05:38.961Z,1.58
2023-02-02T19:08:41.158Z,1.60
2023-02-02T19:11:46.366Z,1.67
2023-02-02T19:14:48.495Z,2.47
2023-02-02T19:17:53.463Z,1.33
2023-02-02T19:20:55.690Z,1.83
2023-02-02T19:23:59.591Z,1.95
2023-02-02T19:30:16.297Z,2.25
2023-02-02T19:33:19.167Z,1.98
2023-02-02T19:36:24.162Z,1.62
2023-02-02T19:39:30.763Z,1.58
2023-02-02T19:42:33.375Z,2.10
2023-02-02T19:45:35.852Z,2.08
2023-02-02T19:48:39.109Z,1.85
2023-02-02T19:51:51.431Z,2.28
2023-02-02T19:54:53.953Z,3.30
2023-02-02T19:58:15.735Z,2.03
2023-02-02T20:01:32.652Z,1.87
2023-02-02T20:04:35.197Z,1.98
2023-02-02T20:07:40.962Z,2.17
2023-02-02T20:10:44.007Z,2.05
2023-02-02T20:13:48.383Z,2.10
2023-02-02T20:16:55.408Z,2.10
2023-02-02T20:19:59.043Z,2.20
2023-02-02T20:23:02.260Z,1.92
2023-02-02T20:26:25.808Z,2.12
2023-02-02T20:29:40.142Z,1.85
2023-02-02T20:32:42.469Z,2.10
2023-02-02T20:35:45.037Z,2.33
2023-02-02T20:38:48.055Z,3.15
2023-02-02T20:41:51.944Z,2.37
2023-02-02T20:44:54.860Z,2.08
2023-02-02T20:47:57.549Z,2.35
2023-02-02T20:50:59.807Z,1.58
2023-02-02T20:54:02.239Z,2.12
2023-02-02T20:57:04.864Z,1.95
2023-02-02T21:00:10.574Z,2.80
2023-02-02T21:03:14.171Z,2.03
2023-02-02T21:06:16.683Z,2.58
2023-02-02T21:09:18.997Z,3.00
2023-02-02T21:12:25.442Z,2.08
2023-02-02T21:15:27.681Z,1.92
2023-02-02T21:18:30.295Z,1.73
2023-02-02T21:21:32.461Z,2.37
2023-02-02T21:24:34.906Z,2.12
2023-02-02T21:27:41.017Z,2.12
2023-02-02T21:30:43.743Z,2.45
2023-02-02T21:33:47.411Z,2.17
2023-02-02T21:36:50.523Z,2.45
2023-02-02T21:39:57.997Z,2.05
2023-02-02T21:43:06.019Z,1.95
2023-02-02T21:46:17.877Z,2.15
2023-02-02T21:49:26.596Z,2.53
2023-02-02T21:52:33.008Z,2.20
2023-02-02T21:55:37.317Z,1.90
2023-02-02T21:58:39.507Z,2.47
2023-02-02T22:01:42.550Z,3.40
2023-02-02T22:04:45.007Z,2.53
2023-02-02T22:07:49.086Z,2.15
2023-02-02T22:10:51.722Z,2.37
2023-02-02T22:13:55.491Z,1.77
2023-02-02T22:16:59.341Z,2.33
2023-02-02T22:20:07.529Z,2.33
2023-02-02T22:23:11.884Z,2.20
2023-02-02T22:26:34.746Z,2.47
2023-02-02T22:29:37.143Z,2.43
2023-02-02T22:32:39.271Z,2.20
2023-02-02T22:35:42.600Z,2.37
2023-02-02T22:38:44.752Z,2.92
2023-02-02T22:41:47.182Z,3.15
2023-02-02T22:44:49.603Z,2.08
2023-02-02T22:47:52.529Z,2.30
2023-02-02T22:50:54.686Z,2.00
2023-02-02T22:53:57.098Z,2.28
2023-02-02T22:56:59.299Z,2.50
2023-02-02T23:00:04.320Z,3.05
2023-02-02T23:03:06.612Z,1.90
2023-02-02T23:06:09.070Z,2.42
2023-02-02T23:09:11.219Z,2.40
2023-02-02T23:12:13.694Z,2.30
2023-02-02T23:15:15.889Z,2.65
2023-02-02T23:18:18.279Z,2.03
2023-02-02T23:21:20.440Z,2.35
2023-02-02T23:24:22.956Z,2.37
2023-02-02T23:27:25.258Z,2.50
2023-02-02T23:30:27.933Z,2.03
2023-02-02T23:33:31.110Z,1.75
2023-02-02T23:36:33.543Z,1.70
2023-02-02T23:39:35.659Z,2.20
2023-02-02T23:42:38.117Z,1.77
2023-02-02T23:45:40.751Z,2.45
2023-02-02T23:48:43.311Z,1.52
2023-02-02T23:51:45.917Z,2.08
2023-02-02T23:54:48.498Z,1.70
2023-02-02T23:57:50.687Z,1.83
